Time;durP1;ratioP1;P1;durP2;ratioP2;P2;SDS_P1;SDS_P2;PMS_P1;PMS_P2;Temp;Humidity;BMP_temperature;BMP_pressure;BME280_temperature;BME280_humidity;BME280_pressure;Samples;Min_cycle;Max_cycle;Signal;HPM_P1;HPM_P2
2023/08/24 00:00:38;;;;;;;2.47;2.00;;;;;;;18.34;81.85;153305.22;10581298;28;20409;-78
2023/08/24 00:05:40;;;;;;;1.60;1.50;;;;;;;18.24;82.39;153280.56;10582206;28;20035;-77
2023/08/24 00:10:44;;;;;;;2.50;2.30;;;;;;;18.51;82.45;153349.38;10583821;28;20039;-77
2023/08/24 00:15:45;;;;;;;2.53;2.10;;;;;;;18.59;81.25;153368.81;10590570;28;20038;-78
2023/08/24 00:20:48;;;;;;;1.95;1.75;;;;;;;18.28;82.94;153290.94;10600473;28;20093;-78
2023/08/24 00:25:50;;;;;;;3.30;1.88;;;;;;;18.25;83.73;153281.84;10600033;28;20046;-78
2023/08/24 00:30:52;;;;;;;2.95;2.05;;;;;;;18.29;83.14;153292.25;10596860;28;20112;-79
2023/08/24 00:35:53;;;;;;;3.65;2.63;;;;;;;18.05;84.97;153231.19;10598548;28;20081;-79
2023/08/24 00:40:56;;;;;;;3.35;2.45;;;;;;;18.21;84.21;153271.47;10564715;28;20043;-78
2023/08/24 00:46:00;;;;;;;2.33;2.13;;;;;;;18.13;84.23;153253.25;10579338;28;20097;-79
2023/08/24 00:51:02;;;;;;;3.05;2.30;;;;;;;17.92;85.86;153198.72;10593485;28;20043;-78
2023/08/24 00:56:06;;;;;;;2.63;2.40;;;;;;;17.79;87.11;153164.97;10599909;28;20036;-78
2023/08/24 01:01:08;;;;;;;6.80;2.20;;;;;;;18.10;85.06;153244.16;10581690;28;20053;-79
2023/08/24 01:06:10;;;;;;;4.97;2.22;;;;;;;17.81;87.67;153171.50;10593055;28;20046;-79
2023/08/24 01:11:15;;;;;;;5.78;3.05;;;;;;;17.62;89.24;153122.16;10595446;28;20058;-79
2023/08/24 01:16:20;;;;;;;2.78;2.50;;;;;;;17.48;90.21;153087.06;10595077;28;20139;-79
2023/08/24 01:21:23;;;;;;;4.97;2.60;;;;;;;17.67;89.30;153133.81;10569256;28;20047;-76
2023/08/24 01:26:26;;;;;;;2.85;2.55;;;;;;;17.62;89.04;153123.44;10568150;28;20139;-76
2023/08/24 01:31:28;;;;;;;2.70;2.25;;;;;;;17.48;89.58;153087.06;10568227;28;20039;-74
2023/08/24 01:36:30;;;;;;;6.88;2.40;;;;;;;17.45;89.42;153079.31;10586424;28;20061;-75
2023/08/24 01:41:42;;;;;;;2.45;2.25;;;;;;;17.60;89.06;153116.94;10586809;28;20035;-75
2023/08/24 01:46:46;;;;;;;2.60;2.38;;;;;;;17.60;88.50;153116.94;10585984;28;20119;-76
2023/08/24 01:51:49;;;;;;;2.65;2.45;;;;;;;17.40;89.71;153067.63;10586137;28;20066;-75
2023/08/24 01:56:51;;;;;;;2.92;2.13;;;;;;;17.24;90.43;153026.09;10584836;28;20089;-76
2023/08/24 02:01:52;;;;;;;2.70;2.40;;;;;;;17.59;88.29;153114.34;10566396;28;20097;-76
2023/08/24 02:06:54;;;;;;;3.60;2.42;;;;;;;17.42;89.55;153071.50;10584460;28;20043;-75
2023/08/24 02:11:56;;;;;;;4.22;2.90;;;;;;;17.14;92.18;153001.47;10566528;28;20051;-76
2023/08/24 02:16:58;;;;;;;2.80;2.55;;;;;;;17.02;93.15;152969.03;10565798;28;20040;-75
2023/08/24 02:21:59;;;;;;;3.08;2.88;;;;;;;17.22;91.76;153019.59;10565848;28;20071;-75
2023/08/24 02:27:01;;;;;;;5.00;3.08;;;;;;;17.20;90.64;153014.44;10583998;28;20036;-76
2023/08/24 02:32:03;;;;;;;2.78;2.38;;;;;;;17.23;90.15;153022.22;10583708;28;20404;-75
2023/08/24 02:37:05;;;;;;;2.95;2.75;;;;;;;17.09;91.31;152987.19;10582502;28;20390;-76
2023/08/24 02:42:07;;;;;;;3.20;2.67;;;;;;;17.04;91.66;152975.47;10583101;28;20044;-76
2023/08/24 02:47:09;;;;;;;4.05;2.95;;;;;;;17.14;90.30;153000.16;10582779;28;20061;-76
2023/08/24 02:52:10;;;;;;;3.25;3.05;;;;;;;16.85;92.13;152927.50;10548158;28;20161;-76
2023/08/24 02:57:12;;;;;;;4.00;2.78;;;;;;;16.92;91.88;152944.38;10583996;28;20107;-76
2023/08/24 03:02:14;;;;;;;3.47;3.17;;;;;;;16.92;91.59;152944.38;10564336;28;20039;-76
2023/08/24 03:07:16;;;;;;;2.97;2.67;;;;;;;16.94;90.88;152949.56;10582847;28;20038;-75
2023/08/24 03:12:18;;;;;;;2.97;2.78;;;;;;;17.20;88.46;153014.44;10564531;28;20043;-75
2023/08/24 03:17:20;;;;;;;4.32;2.88;;;;;;;17.09;89.63;152988.50;10583187;28;20039;-75
2023/08/24 03:22:22;;;;;;;4.00;2.58;;;;;;;16.96;89.89;152954.75;10564211;28;20055;-76
2023/08/24 03:27:24;;;;;;;4.70;3.35;;;;;;;16.69;91.64;152885.97;10582485;28;20036;-75
2023/08/24 03:32:26;;;;;;;3.75;3.45;;;;;;;16.99;89.76;152961.22;10583215;28;20088;-75
2023/08/24 03:37:28;;;;;;;3.22;2.92;;;;;;;17.01;88.82;152967.72;10563967;28;20047;-75
2023/08/24 03:42:30;;;;;;;3.60;3.30;;;;;;;16.82;90.42;152919.75;10583549;28;20509;-75
2023/08/24 03:47:32;;;;;;;3.38;3.17;;;;;;;16.58;92.17;152857.44;10586559;28;20031;-74
2023/08/24 03:52:34;;;;;;;4.05;3.75;;;;;;;16.40;92.88;152813.34;10572315;28;20588;-75
2023/08/24 03:57:37;;;;;;;3.65;3.42;;;;;;;16.34;93.31;152796.50;10571932;28;20085;-75
2023/08/24 04:02:42;;;;;;;3.65;2.95;;;;;;;16.50;92.20;152836.66;10590788;28;20455;-75
2023/08/24 04:07:51;;;;;;;3.60;3.30;;;;;;;16.56;91.80;152853.56;10571446;28;20043;-75
2023/08/24 04:12:53;;;;;;;4.20;3.63;;;;;;;16.58;91.59;152857.44;10589827;28;20071;-75
2023/08/24 04:17:55;;;;;;;3.97;3.30;;;;;;;16.40;92.83;152813.34;10571096;28;20501;-76
2023/08/24 04:22:57;;;;;;;3.92;3.00;;;;;;;16.47;92.69;152830.22;10572256;28;20044;-76
2023/08/24 04:27:58;;;;;;;3.72;3.40;;;;;;;16.53;92.30;152844.47;10590386;28;20060;-76
2023/08/24 04:33:00;;;;;;;4.00;3.70;;;;;;;16.40;92.95;152813.34;10589584;28;22337;-76
2023/08/24 04:38:02;;;;;;;4.45;4.15;;;;;;;16.38;91.71;152806.88;10588983;28;20043;-77
2023/08/24 04:43:03;;;;;;;3.95;3.63;;;;;;;16.67;89.71;152879.47;10588529;28;20054;-75
2023/08/24 04:48:05;;;;;;;3.58;3.38;;;;;;;16.64;90.77;152874.31;10589320;28;20119;-75
2023/08/24 04:53:07;;;;;;;3.80;3.45;;;;;;;16.53;91.59;152845.75;10588747;28;20397;-75
2023/08/24 04:58:10;;;;;;;4.30;3.90;;;;;;;16.54;91.93;152847.03;10588459;28;20048;-75
2023/08/24 05:03:13;;;;;;;3.25;2.95;;;;;;;16.57;91.20;152856.13;10589944;28;20032;-75
2023/08/24 05:08:15;;;;;;;5.25;3.75;;;;;;;16.70;90.80;152887.28;10589569;28;20123;-75
2023/08/24 05:13:17;;;;;;;3.38;2.78;;;;;;;16.85;90.39;152926.22;10589017;28;20110;-75
2023/08/24 05:18:18;;;;;;;3.83;2.92;;;;;;;16.89;90.33;152937.88;10588046;28;20035;-75
2023/08/24 05:23:20;;;;;;;3.75;3.17;;;;;;;17.09;89.42;152988.50;10589715;28;20044;-75
2023/08/24 05:28:22;;;;;;;3.97;3.55;;;;;;;17.34;86.42;153052.03;10588658;28;20048;-75
2023/08/24 05:33:24;;;;;;;5.03;3.58;;;;;;;17.44;86.90;153076.69;10587827;28;20065;-75
2023/08/24 05:38:26;;;;;;;3.50;3.20;;;;;;;17.63;85.46;153126.03;10588436;28;20112;-76
2023/08/24 05:43:28;;;;;;;3.30;3.00;;;;;;;17.73;83.69;153150.66;10569170;28;20491;-76
2023/08/24 05:48:29;;;;;;;3.95;2.80;;;;;;;17.74;84.42;153152.00;10587594;28;20040;-75
2023/08/24 05:53:31;;;;;;;4.85;3.03;;;;;;;18.01;82.28;153220.81;10586897;28;20524;-74
2023/08/24 05:58:33;;;;;;;2.85;2.63;;;;;;;18.20;81.92;153268.88;10567801;28;20051;-74
2023/08/24 06:03:35;;;;;;;3.00;2.75;;;;;;;18.50;80.23;153346.72;10586793;28;20386;-75
2023/08/24 06:08:37;;;;;;;3.97;2.72;;;;;;;19.19;75.15;153520.84;10585521;28;20036;-75
2023/08/24 06:13:39;;;;;;;3.00;2.80;;;;;;;19.37;74.32;153568.91;10585455;28;20118;-74
2023/08/24 06:18:40;;;;;;;3.45;2.60;;;;;;;19.93;70.65;153710.63;10585383;28;20126;-74
2023/08/24 06:23:44;;;;;;;2.75;2.42;;;;;;;20.41;70.26;153834.13;10586067;28;20043;-74
2023/08/24 06:28:45;;;;;;;3.13;2.67;;;;;;;20.74;68.79;153917.38;10586092;28;20120;-74
2023/08/24 06:33:48;;;;;;;2.13;1.90;;;;;;;21.04;67.86;153994.13;10585099;28;20092;-74
2023/08/24 06:38:51;;;;;;;2.75;2.15;;;;;;;21.31;64.80;154061.78;10585185;28;20385;-74
2023/08/24 06:43:53;;;;;;;3.45;2.65;;;;;;;21.35;66.09;154072.22;10585379;28;20115;-74
2023/08/24 06:48:55;;;;;;;3.40;2.17;;;;;;;21.28;65.29;154053.94;10584639;28;20093;-75
2023/08/24 06:53:57;;;;;;;3.85;2.33;;;;;;;21.53;62.82;154117.75;10567305;28;20035;-74
2023/08/24 06:58:59;;;;;;;3.33;2.25;;;;;;;21.36;64.91;154074.81;10585326;28;20047;-77
2023/08/24 07:04:00;;;;;;;4.80;2.00;;;;;;;21.84;62.38;154197.13;10567546;28;20058;-76
2023/08/24 07:09:06;;;;;;;2.67;1.92;;;;;;;21.89;62.62;154211.44;10551006;28;20047;-76
2023/08/24 07:14:08;;;;;;;2.33;2.13;;;;;;;21.90;62.70;154212.75;10585477;28;20039;-77
2023/08/24 07:19:10;;;;;;;4.50;2.20;;;;;;;22.21;61.67;154290.88;10584738;28;20043;-74
2023/08/24 07:24:11;;;;;;;1.77;1.45;;;;;;;22.24;62.25;154298.72;10584634;28;20063;-75
2023/08/24 07:29:13;;;;;;;3.22;2.00;;;;;;;22.47;60.11;154358.59;10584813;28;20047;-76
2023/08/24 07:34:15;;;;;;;3.45;1.88;;;;;;;22.67;60.48;154410.69;10584664;28;20111;-76
2023/08/24 07:39:17;;;;;;;6.68;1.83;;;;;;;22.53;60.13;154374.19;10584224;28;20493;-75
2023/08/24 07:44:19;;;;;;;4.88;1.67;;;;;;;22.59;61.47;154388.53;10583533;28;20042;-75
2023/08/24 07:49:20;;;;;;;2.83;1.73;;;;;;;22.74;59.83;154427.59;10583168;28;20461;-75
2023/08/24 07:54:22;;;;;;;4.03;1.90;;;;;;;22.98;58.25;154488.88;10583216;28;20118;-75
2023/08/24 07:59:24;;;;;;;3.75;2.55;;;;;;;23.06;57.55;154508.38;10582205;28;20071;-75
2023/08/24 08:04:26;;;;;;;2.00;1.80;;;;;;;23.11;59.47;154522.72;10563976;28;20569;-75
2023/08/24 08:09:27;;;;;;;3.17;1.48;;;;;;;23.51;57.71;154624.34;10582112;28;20413;-75
2023/08/24 08:14:29;;;;;;;2.42;2.03;;;;;;;23.97;55.32;154741.63;10583159;28;20385;-76
2023/08/24 08:19:31;;;;;;;1.73;1.42;;;;;;;23.85;57.03;154710.34;10581243;28;20408;-75
2023/08/24 08:24:33;;;;;;;3.05;1.60;;;;;;;24.12;56.34;154780.69;10565704;28;20036;-75
2023/08/24 08:29:35;;;;;;;2.70;1.83;;;;;;;24.37;55.47;154843.34;10575265;28;20046;-76
2023/08/24 08:34:36;;;;;;;2.42;1.50;;;;;;;24.62;56.34;154907.22;10549583;28;20048;-75
2023/08/24 08:39:38;;;;;;;3.30;2.22;;;;;;;25.00;51.71;155003.69;10566325;28;20047;-75
2023/08/24 08:44:47;;;;;;;2.53;1.48;;;;;;;24.85;51.56;154967.19;10566278;28;20043;-76
2023/08/24 08:49:52;;;;;;;4.88;1.10;;;;;;;24.95;51.72;154991.94;10562420;28;20040;-74
2023/08/24 08:54:54;;;;;;;2.40;1.92;;;;;;;25.27;49.05;155074.16;10547165;28;20087;-75
2023/08/24 08:59:58;;;;;;;3.15;1.40;;;;;;;25.38;48.15;155101.56;10547437;28;20122;-75
2023/08/24 09:05:00;;;;;;;1.77;1.00;;;;;;;25.66;48.59;155173.28;10546628;28;20032;-76
2023/08/24 09:10:04;;;;;;;4.90;1.60;;;;;;;26.29;47.50;155335.09;10546728;28;20536;-75
2023/08/24 09:15:09;;;;;;;2.28;1.40;;;;;;;26.61;46.76;155417.41;10511567;28;20071;-75
2023/08/24 09:20:11;;;;;;;3.65;1.58;;;;;;;26.67;44.74;155431.75;10528366;28;20139;-74
2023/08/24 09:25:13;;;;;;;2.60;1.40;;;;;;;26.75;43.30;155452.66;10528870;28;20040;-75
2023/08/24 09:30:15;;;;;;;2.95;1.15;;;;;;;26.98;43.90;155511.38;10546028;28;20048;-76
2023/08/24 09:35:20;;;;;;;1.98;1.17;;;;;;;27.31;41.55;155594.97;10528023;28;20465;-76
2023/08/24 09:40:26;;;;;;;3.42;1.10;;;;;;;27.77;40.87;155712.59;10544385;28;20111;-75
2023/08/24 09:45:27;;;;;;;;;;;;;;;28.66;39.33;155942.56;10545431;28;20074;-75
2023/08/24 09:50:29;;;;;;;1.58;1.13;;;;;;;29.53;39.05;156163.47;10527173;28;20305;-75
2023/08/24 09:55:36;;;;;;;2.47;1.40;;;;;;;29.34;38.15;156115.13;10546510;28;20050;-75
2023/08/24 10:00:38;;;;;;;2.78;1.30;;;;;;;29.48;37.56;156150.41;10544620;28;20063;-76
2023/08/24 10:05:40;;;;;;;6.38;1.70;;;;;;;29.62;37.13;156187.09;10544260;28;20032;-76
2023/08/24 10:10:58;;;;;;;1.73;1.20;;;;;;;29.21;37.13;156081.13;10545705;28;20097;-76
2023/08/24 10:16:00;;;;;;;4.18;1.33;;;;;;;29.49;36.93;156153.06;10543765;28;20131;-76
2023/08/24 10:21:03;;;;;;;1.70;1.02;;;;;;;29.03;37.87;156036.69;10544571;28;20063;-76
2023/08/24 10:26:07;;;;;;;2.22;1.30;;;;;;;29.27;37.11;156098.16;10542417;28;20035;-75
2023/08/24 10:31:10;;;;;;;;;;;;;;;29.52;37.73;156160.88;10543692;28;20126;-76
2023/08/24 10:36:14;;;;;;;1.55;1.20;;;;;;;29.38;37.25;156126.88;10525926;28;19920;-76
2023/08/24 10:41:15;;;;;;;3.75;1.27;;;;;;;29.29;36.84;156102.06;10543639;28;20382;-76
2023/08/24 10:46:17;;;;;;;6.70;1.33;;;;;;;29.22;37.65;156083.75;10543633;28;20447;-75
2023/08/24 10:51:26;;;;;;;2.70;1.50;;;;;;;29.56;35.52;156171.38;10543286;28;20067;-76
2023/08/24 10:56:36;;;;;;;2.17;1.30;;;;;;;30.10;34.82;156310.00;10542538;28;20072;-76
2023/08/24 11:01:42;;;;;;;1.67;1.00;;;;;;;29.37;36.16;156122.97;10542456;28;20055;-77
2023/08/24 11:06:58;;;;;;;1.40;1.10;;;;;;;29.21;36.26;156082.44;10541358;28;20044;-76
2023/08/24 11:12:03;;;;;;;1.33;1.15;;;;;;;29.01;38.37;156030.19;10545049;28;20485;-76
2023/08/24 11:17:21;;;;;;;1.65;1.10;;;;;;;29.24;37.78;156090.28;10542299;28;20070;-76
2023/08/24 11:22:25;;;;;;;1.90;1.25;;;;;;;29.40;37.36;156130.84;10542319;28;20040;-76
2023/08/24 11:27:27;;;;;;;1.80;1.27;;;;;;;29.53;37.45;156163.47;10545030;28;20074;-76
2023/08/24 11:32:29;;;;;;;1.45;1.10;;;;;;;29.64;36.70;156192.31;10524999;28;20046;-76
2023/08/24 11:37:31;;;;;;;3.00;1.40;;;;;;;30.06;36.74;156300.88;10541228;28;20111;-76
2023/08/24 11:42:36;;;;;;;3.15;1.40;;;;;;;30.19;36.31;156332.28;10541305;28;20044;-76
2023/08/24 11:47:38;;;;;;;2.08;1.67;;;;;;;30.67;35.78;156457.84;10542056;28;20481;-76
2023/08/24 11:52:44;;;;;;;2.53;1.25;;;;;;;30.16;35.53;156325.75;10542069;28;20036;-75
2023/08/24 11:57:45;;;;;;;1.73;1.13;;;;;;;29.51;36.96;156159.56;10541750;28;20040;-75
2023/08/24 12:02:48;;;;;;;5.07;1.30;;;;;;;29.49;38.79;156154.38;10542066;28;20079;-75
2023/08/24 12:07:54;;;;;;;1.55;1.10;;;;;;;29.35;36.78;156119.06;10544777;28;20040;-75
2023/08/24 12:13:06;;;;;;;2.15;1.40;;;;;;;29.08;37.44;156049.75;10550259;28;20048;-75
2023/08/24 12:18:11;;;;;;;2.13;1.10;;;;;;;28.88;37.87;155997.44;10550103;28;20032;-76
2023/08/24 12:23:13;;;;;;;1.90;1.30;;;;;;;28.99;38.29;156026.22;10531109;28;20559;-74
2023/08/24 12:28:16;;;;;;;3.22;1.30;;;;;;;29.44;36.73;156139.94;10549860;28;20569;-74
2023/08/24 12:33:25;;;;;;;1.50;1.40;;;;;;;29.47;35.85;156147.81;10531897;28;20036;-73
2023/08/24 12:38:27;;;;;;;1.83;1.33;;;;;;;29.41;38.47;156134.75;10549025;28;20036;-73
2023/08/24 12:43:29;;;;;;;1.65;1.38;;;;;;;29.11;36.71;156056.31;10605930;27;20103;-72
2023/08/24 12:48:31;;;;;;;3.90;1.35;;;;;;;28.91;38.49;156005.31;10632791;27;20088;-73
2023/08/24 12:53:33;;;;;;;1.70;1.33;;;;;;;29.07;38.24;156045.84;10614366;27;20047;-72
2023/08/24 12:58:38;;;;;;;1.50;1.10;;;;;;;29.33;36.29;156112.53;10632907;27;20073;-72
2023/08/24 13:03:39;;;;;;;2.08;1.30;;;;;;;30.10;36.08;156311.28;10632680;27;20143;-73
2023/08/24 13:08:41;;;;;;;4.25;1.40;;;;;;;30.37;35.53;156380.69;10632175;27;20045;-73
2023/08/24 13:13:45;;;;;;;2.47;1.65;;;;;;;30.39;35.23;156384.59;10613120;27;20043;-72
2023/08/24 13:18:47;;;;;;;1.77;1.20;;;;;;;30.44;35.03;156396.38;10605508;27;20405;-74
2023/08/24 13:23:49;;;;;;;1.65;1.40;;;;;;;30.35;36.47;156375.44;10600719;27;20285;-73
2023/08/24 13:28:51;;;;;;;2.42;1.20;;;;;;;30.20;36.81;156334.94;10568079;28;20035;-74
2023/08/24 13:33:53;;;;;;;1.85;1.40;;;;;;;30.02;35.87;156290.41;10569384;28;20044;-76
2023/08/24 13:38:55;;;;;;;1.95;1.40;;;;;;;29.72;37.61;156213.25;10572147;28;20054;-76
2023/08/24 13:43:57;;;;;;;1.42;1.27;;;;;;;29.62;38.90;156188.41;10593685;28;20078;-77
2023/08/24 13:48:59;;;;;;;2.28;1.40;;;;;;;29.78;38.11;156228.91;10586885;28;20066;-77
2023/08/24 13:54:00;;;;;;;2.53;1.60;;;;;;;29.62;38.26;156187.09;10588838;28;20050;-77
2023/08/24 13:59:05;;;;;;;3.10;1.48;;;;;;;29.36;38.86;156121.69;10574880;28;20119;-78
2023/08/24 14:04:07;;;;;;;2.95;1.55;;;;;;;29.48;38.29;156151.72;10589665;28;20062;-77
2023/08/24 14:09:09;;;;;;;2.25;1.45;;;;;;;29.32;39.66;156109.91;10568754;28;20043;-76
2023/08/24 14:14:11;;;;;;;2.80;1.65;;;;;;;29.13;39.28;156062.88;10585889;28;20118;-75
2023/08/24 14:19:13;;;;;;;1.98;1.50;;;;;;;29.18;39.26;156074.63;10567878;28;20093;-74
2023/08/24 14:24:18;;;;;;;2.90;1.48;;;;;;;29.08;39.33;156049.75;10569050;28;20056;-78
2023/08/24 14:29:20;;;;;;;2.05;1.40;;;;;;;29.03;39.76;156036.69;10587937;28;20040;-77
2023/08/24 14:34:22;;;;;;;3.67;1.60;;;;;;;29.18;40.08;156073.31;10587945;28;20074;-77
2023/08/24 14:39:23;;;;;;;3.75;1.50;;;;;;;29.18;39.91;156073.31;10568159;28;20130;-77
2023/08/24 14:44:25;;;;;;;2.58;1.70;;;;;;;29.14;40.31;156064.16;10588027;28;20512;-77
2023/08/24 14:49:28;;;;;;;2.85;1.42;;;;;;;29.19;40.04;156077.22;10590265;28;20180;-78
2023/08/24 14:54:30;;;;;;;2.63;1.50;;;;;;;29.48;41.46;156150.41;10588589;28;20065;-77
2023/08/24 14:59:32;;;;;;;2.95;1.70;;;;;;;29.52;40.04;156162.19;10584883;28;20035;-77
2023/08/24 15:04:33;;;;;;;4.53;1.67;;;;;;;29.49;40.54;156153.06;10591622;28;20039;-78
2023/08/24 15:09:35;;;;;;;2.53;1.90;;;;;;;29.29;40.76;156102.06;10593921;28;20050;-78
2023/08/24 15:14:37;;;;;;;2.55;1.63;;;;;;;29.48;41.00;156151.72;10592573;28;20031;-78
2023/08/24 15:19:39;;;;;;;3.97;1.83;;;;;;;29.56;40.81;156171.38;10571300;28;20039;-79
2023/08/24 15:24:42;;;;;;;2.55;1.83;;;;;;;29.34;40.59;156115.13;10567179;28;20501;-78
2023/08/24 15:29:43;;;;;;;2.53;1.67;;;;;;;29.32;41.44;156109.91;10590985;28;20039;-79
2023/08/24 15:34:45;;;;;;;3.10;1.63;;;;;;;29.52;40.74;156162.19;10591847;28;20074;-77
2023/08/24 15:39:47;;;;;;;2.35;1.70;;;;;;;29.33;40.97;156113.81;10585591;28;20077;-77
2023/08/24 15:44:49;;;;;;;4.00;1.90;;;;;;;29.40;40.35;156132.16;10603096;28;20032;-78
2023/08/24 15:49:51;;;;;;;2.63;1.67;;;;;;;29.42;39.69;156137.34;10605882;28;20041;-78
2023/08/24 15:54:53;;;;;;;2.47;1.60;;;;;;;29.12;41.28;156060.22;10602409;28;20091;-78
2023/08/24 15:59:54;;;;;;;2.33;1.80;;;;;;;29.01;41.40;156031.47;10605215;28;20096;-79
2023/08/24 16:04:56;;;;;;;2.78;1.65;;;;;;;29.07;41.43;156047.16;10604848;28;20036;-77
2023/08/24 16:09:58;;;;;;;4.47;1.60;;;;;;;29.12;42.01;156060.22;10606295;28;20450;-79
2023/08/24 16:15:00;;;;;;;3.60;2.03;;;;;;;29.13;41.23;156062.88;10588650;28;20048;-78
2023/08/24 16:20:07;;;;;;;3.80;1.70;;;;;;;29.12;40.76;156058.91;10601910;28;20048;-77
2023/08/24 16:25:09;;;;;;;1.98;1.17;;;;;;;28.94;41.44;156013.13;10581870;28;20040;-78
2023/08/24 16:30:11;;;;;;;3.40;1.85;;;;;;;28.69;42.12;155949.09;10583419;28;20043;-78
2023/08/24 16:35:13;;;;;;;3.85;1.83;;;;;;;28.78;41.13;155972.63;10605542;28;20036;-79
2023/08/24 16:40:16;;;;;;;3.65;1.67;;;;;;;28.51;42.25;155902.03;10583813;28;20058;-78
2023/08/24 16:45:17;;;;;;;3.88;1.90;;;;;;;28.24;43.77;155832.75;10580932;28;20039;-79
2023/08/24 16:50:19;;;;;;;3.45;1.77;;;;;;;28.10;43.60;155798.78;10620185;28;20054;-78
2023/08/24 16:55:21;;;;;;;3.00;1.70;;;;;;;28.13;44.29;155806.63;10577840;28;20447;-75
2023/08/24 17:00:23;;;;;;;4.00;2.05;;;;;;;28.04;44.68;155783.13;10588736;28;20501;-75
2023/08/24 17:05:25;;;;;;;2.15;1.33;;;;;;;28.20;43.41;155822.28;10571115;28;20056;-74
2023/08/24 17:10:27;;;;;;;4.07;1.40;;;;;;;28.06;44.46;155787.00;10587556;28;20069;-75
2023/08/24 17:15:29;;;;;;;2.38;1.63;;;;;;;28.03;44.19;155779.22;10569486;28;20048;-74
2023/08/24 17:20:35;;;;;;;1.92;1.50;;;;;;;27.95;44.58;155758.31;10587773;28;20039;-75
2023/08/24 17:25:44;;;;;;;1.95;1.70;;;;;;;27.80;45.17;155720.38;10588452;28;20082;-75
2023/08/24 17:30:47;;;;;;;2.70;1.90;;;;;;;27.50;46.14;155643.31;10586867;28;20485;-74
2023/08/24 17:35:50;;;;;;;2.00;1.70;;;;;;;27.31;46.51;155594.97;10567434;28;20477;-75
2023/08/24 17:41:06;;;;;;;2.90;1.63;;;;;;;27.19;47.76;155564.97;10567424;28;20063;-74
2023/08/24 17:46:08;;;;;;;4.05;1.63;;;;;;;26.93;47.83;155498.34;10564631;28;20143;-76
2023/08/24 17:51:10;;;;;;;1.90;1.50;;;;;;;26.87;48.31;155482.63;10539419;28;20068;-73
2023/08/24 17:56:11;;;;;;;2.83;1.60;;;;;;;26.73;50.98;155447.41;10543827;28;20093;-75
2023/08/24 18:01:13;;;;;;;3.45;1.95;;;;;;;26.46;53.96;155376.94;10526125;28;20086;-74
2023/08/24 18:06:15;;;;;;;4.82;2.42;;;;;;;26.46;54.96;155378.22;10543064;28;20051;-75
2023/08/24 18:11:17;;;;;;;3.25;2.13;;;;;;;26.25;57.17;155323.34;10543171;28;20127;-75
2023/08/24 18:16:19;;;;;;;2.53;2.30;;;;;;;25.89;57.71;155232.03;10542791;28;20127;-75
2023/08/24 18:21:21;;;;;;;2.80;2.05;;;;;;;25.58;57.48;155152.41;10546720;28;20043;-75
2023/08/24 18:26:22;;;;;;;2.58;2.38;;;;;;;25.18;58.95;155050.66;10565834;28;20046;-75
2023/08/24 18:31:25;;;;;;;3.75;2.20;;;;;;;25.17;59.85;155049.38;10563708;28;20039;-75
2023/08/24 18:36:27;;;;;;;3.92;2.55;;;;;;;25.00;59.86;155004.97;10570786;28;20039;-74
2023/08/24 18:41:29;;;;;;;3.30;2.47;;;;;;;24.81;61.55;154955.44;10584832;28;20122;-76
2023/08/24 18:46:31;;;;;;;2.70;2.45;;;;;;;24.46;62.84;154865.50;10544518;28;20040;-74
2023/08/24 18:51:32;;;;;;;2.63;2.40;;;;;;;24.42;63.93;154856.38;10560238;28;20054;-74
2023/08/24 18:56:34;;;;;;;3.30;2.67;;;;;;;24.55;63.44;154888.97;10551286;28;20036;-75
2023/08/24 19:01:38;;;;;;;3.45;2.67;;;;;;;24.41;63.00;154853.78;10542159;28;20410;-74
2023/08/24 19:06:40;;;;;;;3.45;2.95;;;;;;;24.18;65.07;154795.06;10542605;28;20048;-75
2023/08/24 19:11:48;;;;;;;4.68;3.20;;;;;;;24.08;65.20;154768.97;10541455;28;20048;-73
2023/08/24 19:16:50;;;;;;;4.40;3.00;;;;;;;23.86;66.28;154712.94;10571105;28;20035;-74
2023/08/24 19:21:52;;;;;;;4.25;3.60;;;;;;;23.83;66.83;154706.44;10568548;22;20044;-70
2023/08/24 19:26:53;;;;;;;3.17;2.80;;;;;;;23.78;67.04;154692.13;10540153;28;20081;-69
2023/08/24 19:31:55;;;;;;;3.83;3.45;;;;;;;23.78;67.13;154692.13;10539563;28;20048;-69
2023/08/24 19:36:57;;;;;;;3.55;3.25;;;;;;;23.53;67.79;154629.53;10540111;28;20032;-69
2023/08/24 19:41:59;;;;;;;3.85;3.45;;;;;;;23.37;68.15;154587.81;10539974;28;20131;-68
2023/08/24 19:47:01;;;;;;;3.47;2.65;;;;;;;23.29;67.82;154567.00;10522773;28;20211;-68
2023/08/24 19:52:02;;;;;;;3.58;2.92;;;;;;;23.56;69.90;154637.34;10521785;28;20126;-68
2023/08/24 19:57:08;;;;;;;3.93;3.53;;;;;;;23.39;68.77;154594.34;10521375;28;20416;-69
2023/08/24 20:02:09;;;;;;;4.50;3.35;;;;;;;23.34;68.07;154580.03;10521549;28;20048;-69
2023/08/24 20:07:11;;;;;;;2.95;2.47;;;;;;;23.21;69.24;154546.16;10539403;28;20067;-69
2023/08/24 20:12:13;;;;;;;3.45;2.70;;;;;;;23.21;68.79;154546.16;10521249;28;20561;-68
2023/08/24 20:17:18;;;;;;;4.80;3.03;;;;;;;23.14;69.16;154529.22;10539265;28;20040;-69
2023/08/24 20:22:20;;;;;;;4.20;3.80;;;;;;;23.00;70.08;154492.75;10540121;28;20127;-69
2023/08/24 20:27:22;;;;;;;4.10;3.10;;;;;;;22.90;70.28;154469.31;10540247;28;20405;-69
2023/08/24 20:32:24;;;;;;;4.00;3.22;;;;;;;22.77;71.04;154434.13;10547600;28;20124;-69
2023/08/24 20:37:26;;;;;;;3.67;3.08;;;;;;;22.75;70.54;154428.88;10547952;28;20036;-70
2023/08/24 20:42:28;;;;;;;3.80;2.92;;;;;;;22.87;69.85;154461.44;10547474;28;20119;-69
2023/08/24 20:47:30;;;;;;;3.33;2.75;;;;;;;22.85;69.53;154454.97;10546970;28;20046;-69
2023/08/24 20:52:32;;;;;;;3.88;3.47;;;;;;;22.70;70.07;154415.88;10546764;28;20139;-68
2023/08/24 20:57:34;;;;;;;4.97;3.20;;;;;;;22.63;70.37;154398.97;10546060;28;20086;-69
2023/08/24 21:02:36;;;;;;;5.13;3.25;;;;;;;22.42;71.20;154346.88;10527901;28;20059;-69
2023/08/24 21:07:37;;;;;;;5.22;3.45;;;;;;;22.45;70.91;154352.09;10545947;28;20059;-69
2023/08/24 21:12:39;;;;;;;9.77;3.42;;;;;;;22.36;71.81;154331.25;10545687;28;20071;-69
2023/08/24 21:17:41;;;;;;;6.15;3.88;;;;;;;22.36;72.21;154329.97;10546785;28;20100;-69
2023/08/24 21:22:43;;;;;;;5.30;3.25;;;;;;;22.25;72.81;154301.31;10546562;28;20051;-69
2023/08/24 21:27:45;;;;;;;2.72;2.53;;;;;;;22.36;71.54;154329.97;10545886;28;20036;-69
2023/08/24 21:32:47;;;;;;;5.30;3.50;;;;;;;22.40;72.20;154340.34;10547590;28;20127;-69
2023/08/24 21:37:49;;;;;;;3.03;2.72;;;;;;;22.55;71.80;154379.41;10544749;28;20037;-69
2023/08/24 21:42:51;;;;;;;3.95;3.35;;;;;;;22.39;71.40;154337.75;10544121;28;20048;-69
2023/08/24 21:47:52;;;;;;;3.10;2.80;;;;;;;22.45;71.54;154353.41;10544209;28;20120;-69
2023/08/24 21:52:54;;;;;;;3.75;3.45;;;;;;;22.42;71.49;154346.88;10509375;28;20466;-69
2023/08/24 21:57:57;;;;;;;6.00;2.45;;;;;;;22.39;72.42;154337.75;10545052;28;20115;-71
2023/08/24 22:02:59;;;;;;;3.05;2.72;;;;;;;22.12;73.11;154270.06;10543977;28;20490;-70
2023/08/24 22:08:05;;;;;;;3.45;2.88;;;;;;;22.03;73.67;154245.28;10544038;28;20071;-70
2023/08/24 22:13:07;;;;;;;3.85;3.05;;;;;;;22.01;73.76;154241.41;10544033;28;20048;-70
2023/08/24 22:18:08;;;;;;;2.50;2.30;;;;;;;22.04;73.40;154249.16;10543316;28;20085;-70
2023/08/24 22:23:10;;;;;;;3.03;2.72;;;;;;;22.39;72.58;154339.03;10525103;28;20493;-71
2023/08/24 22:28:13;;;;;;;5.18;3.45;;;;;;;22.37;72.24;154333.84;10542688;28;20111;-71
2023/08/24 22:33:14;;;;;;;3.63;3.33;;;;;;;22.34;73.10;154324.72;10542802;28;20126;-71
2023/08/24 22:38:16;;;;;;;3.38;2.72;;;;;;;22.22;73.44;154293.47;10542187;28;20040;-71
2023/08/24 22:43:18;;;;;;;2.97;2.78;;;;;;;22.13;73.42;154272.69;10542539;28;20075;-71
2023/08/24 22:48:19;;;;;;;3.53;2.65;;;;;;;22.19;72.70;154287.00;10541637;28;20070;-70
2023/08/24 22:53:21;;;;;;;4.35;2.58;;;;;;;22.30;69.75;154315.59;10541576;28;20089;-70
2023/08/24 22:58:23;;;;;;;2.80;2.50;;;;;;;22.31;68.51;154318.25;10541468;28;20047;-73
2023/08/24 23:03:25;;;;;;;2.53;1.90;;;;;;;22.46;66.99;154354.69;10542576;28;20075;-73
2023/08/24 23:08:26;;;;;;;4.32;2.55;;;;;;;22.51;67.58;154367.72;10543141;28;20036;-72